Artesia ASC Data

Date Time Air Temperature Relative Humidity Dewpoint Windchill Heat Index Wind Speed Wind Dir. Rain Solar Radiation Soil Temperature
2m 2m 3m 3m 10cm
US/Mountain F % F F F MPH deg in MJ/m^2 F
max avg avg
2021-07-22 00:05:00 68.1 65.3 56.1 68.1 68.1 4.2 4.4 3.0 227.9 202.8 0.00 0.0000000 77.5
2021-07-22 00:10:00 67.9 68.6 57.2 67.9 67.9 3.1 5.1 4.3 227.3 230.5 0.00 0.0000000 77.5
2021-07-22 00:15:00 66.9 71.0 57.2 66.9 66.9 1.7 2.8 2.3 243.3 254.0 0.00 0.0000000 77.5
2021-07-22 00:20:00 67.0 68.7 56.4 67.0 67.0 3.8 4.2 2.5 201.4 220.7 0.00 0.0000000 77.4
2021-07-22 00:25:00 68.3 65.1 56.1 68.3 68.3 4.4 5.5 4.6 189.9 194.6 0.00 0.0000000 77.4
2021-07-22 00:30:00 67.9 66.7 56.4 67.9 67.9 4.9 5.6 4.6 164.1 168.6 0.00 0.0000000 77.3
2021-07-22 00:35:00 67.7 66.3 56.1 67.7 67.7 4.4 5.6 5.0 156.9 152.1 0.00 0.0000000 77.3
2021-07-22 00:40:00 67.9 63.4 55.0 67.9 67.9 5.6 8.0 5.1 165.1 158.9 0.00 0.0000000 77.3
2021-07-22 00:45:00 68.8 61.3 54.9 68.8 68.8 5.3 7.4 5.5 152.7 151.3 0.00 0.0000000 77.2
2021-07-22 00:50:00 68.2 62.3 54.8 68.2 68.2 5.3 6.7 5.1 153.3 161.2 0.00 0.0000000 77.2
2021-07-22 00:55:00 68.4 62.0 54.9 68.4 68.4 4.4 6.7 4.7 162.3 163.4 0.00 0.0000000 77.2
2021-07-22 01:00:00 68.0 64.2 55.5 68.0 68.0 3.5 4.9 3.7 210.7 195.7 0.00 0.0000000 77.1
2021-07-22 01:05:00 67.4 65.8 55.5 67.4 67.4 4.0 5.1 3.8 219.6 222.9 0.00 0.0000000 77.1
2021-07-22 01:10:00 67.7 64.6 55.3 67.7 67.7 3.3 4.0 3.4 203.7 211.6 0.00 0.0000000 77.1
2021-07-22 01:15:00 68.4 62.5 55.1 68.4 68.4 2.8 4.4 3.4 211.6 208.6 0.00 0.0000000 77.0
2021-07-22 01:20:00 68.3 63.4 55.4 68.3 68.3 3.7 3.8 3.4 217.1 212.8 0.00 0.0000000 77.0
2021-07-22 01:25:00 68.1 63.9 55.4 68.1 68.1 1.3 3.8 2.9 227.6 214.4 0.00 0.0000000 76.9
2021-07-22 01:30:00 67.8 66.2 56.1 67.8 67.8 2.2 3.3 2.2 241.0 231.8 0.00 0.0000000 76.9
2021-07-22 01:35:00 67.9 65.3 55.8 67.9 67.9 3.1 3.5 2.3 209.8 215.8 0.00 0.0000000 76.9
2021-07-22 01:40:00 67.4 67.3 56.2 67.4 67.4 3.5 4.9 2.9 198.8 186.2 0.00 0.0000000 76.8
2021-07-22 01:45:00 67.8 65.8 55.9 67.8 67.8 3.7 5.3 3.8 222.1 204.4 0.00 0.0000000 76.8
2021-07-22 01:50:00 66.8 67.9 55.9 66.8 66.8 2.4 4.0 3.0 203.7 217.8 0.00 0.0000000 76.8
2021-07-22 01:55:00 66.2 72.8 57.2 66.2 66.2 2.8 3.1 2.6 271.9 244.9 0.00 0.0000000 76.7
2021-07-22 02:00:00 64.9 77.5 57.7 64.9 64.9 3.0 3.3 2.9 327.4 289.4 0.00 0.0000000 76.7
2021-07-22 02:05:00 65.6 75.0 57.5 65.6 65.6 3.1 3.3 3.0 342.0 323.1 0.00 0.0000000 76.7
2021-07-22 02:10:00 66.6 71.3 57.1 66.6 66.6 3.0 3.1 2.9 342.6 337.0 0.00 0.0000000 76.7
2021-07-22 02:15:00 67.2 70.0 57.1 67.2 67.2 1.5 3.1 2.6 337.6 336.2 0.00 0.0000000 76.6
2021-07-22 02:20:00 66.3 74.6 58.0 66.3 66.3 1.7 2.2 1.4 114.7 114.8 0.00 0.0000000 76.6
2021-07-22 02:25:00 65.3 79.7 58.9 65.3 65.3 1.0 2.2 1.6 81.1 92.2 0.00 0.0000000 76.5
2021-07-22 02:30:00 65.0 80.6 58.9 65.0 65.0 1.9 2.1 1.6 104.8 100.6 0.00 0.0000000 76.6
2021-07-22 02:35:00 64.9 79.6 58.4 64.9 64.9 2.8 2.8 2.3 119.2 107.4 0.00 0.0000000 76.5
2021-07-22 02:40:00 65.3 77.3 58.0 65.3 65.3 3.3 3.8 3.2 106.4 102.8 0.00 0.0000000 76.4
2021-07-22 02:45:00 66.2 75.2 58.1 66.2 66.2 3.3 4.4 3.7 100.1 97.9 0.00 0.0000000 76.4
2021-07-22 02:50:00 66.1 77.4 58.8 66.1 66.1 1.5 3.7 2.4 132.3 110.2 0.00 0.0000000 76.4
2021-07-22 02:55:00 65.4 78.8 58.6 65.4 65.4 1.2 1.5 0.6 98.4 128.0 0.00 0.0000000 76.4
2021-07-22 03:00:00 65.7 74.3 57.3 65.7 65.7 0.0 1.2 0.4 120.6 119.6 0.00 0.0000000 76.4
2021-07-22 03:05:00 66.6 71.3 57.0 66.6 66.6 0.0 1.2 0.2 186.0 105.0 0.00 0.0000000 76.3
2021-07-22 03:10:00 66.9 73.1 58.0 66.9 66.9 1.3 1.3 0.1 242.0 212.7 0.00 0.0000000 76.3
2021-07-22 03:15:00 65.5 80.4 59.3 65.5 65.5 3.8 4.2 3.4 250.8 248.2 0.00 0.0000000 76.3
2021-07-22 03:20:00 64.0 84.1 59.1 64.0 64.0 3.1 3.8 3.4 277.8 262.0 0.00 0.0000000 76.2
2021-07-22 03:25:00 63.8 84.8 59.1 63.8 63.8 2.6 4.2 3.4 263.9 274.8 0.00 0.0000000 76.2
2021-07-22 03:30:00 63.9 85.3 59.4 63.9 63.9 1.5 2.4 2.0 272.3 272.7 0.00 0.0000000 76.2
2021-07-22 03:35:00 63.8 85.3 59.3 63.8 63.8 2.1 2.1 0.9 246.2 261.2 0.00 0.0000000 76.2
2021-07-22 03:40:00 63.9 85.7 59.5 63.9 63.9 1.5 2.2 1.9 281.9 257.2 0.00 0.0000000 76.1
2021-07-22 03:45:00 64.0 85.1 59.4 64.0 64.0 2.2 3.0 2.3 11.9 340.9 0.00 0.0000000 76.1
2021-07-22 03:50:00 64.7 81.8 59.0 64.7 64.7 1.3 2.4 2.0 41.7 26.0 0.00 0.0000000 76.1
2021-07-22 03:55:00 64.8 81.8 59.1 64.8 64.8 1.5 1.9 1.0 114.9 101.8 0.00 0.0000000 76.0
2021-07-22 04:00:00 64.3 83.7 59.3 64.3 64.3 1.5 1.5 0.3 6.6 82.5 0.00 0.0000000 76.0
2021-07-22 04:05:00 63.8 84.7 59.1 63.8 63.8 1.7 2.2 2.0 5.6 354.5 0.00 0.0000000 76.0
2021-07-22 04:10:00 63.9 83.7 58.9 63.9 63.9 0.0 1.9 1.0 25.4 23.3 0.00 0.0000000 76.0
2021-07-22 04:15:00 64.1 83.7 59.1 64.1 64.1 0.0 0.0 0.0 15.2 0.0 0.00 0.0000000 75.9
2021-07-22 04:20:00 64.2 85.1 59.6 64.2 64.2 1.7 1.7 0.9 329.5 330.8 0.00 0.0000000 75.9
2021-07-22 04:25:00 63.9 85.6 59.5 63.9 63.9 0.0 1.7 0.9 13.1 334.5 0.00 0.0000000 75.9
2021-07-22 04:30:00 63.9 83.7 58.9 63.9 63.9 0.0 0.0 0.0 49.0 0.0 0.00 0.0000000 75.9
2021-07-22 04:35:00 64.4 80.7 58.4 64.4 64.4 0.0 0.8 0.0 93.5 103.3 0.00 0.0000000 75.8
2021-07-22 04:40:00 64.4 82.5 58.9 64.4 64.4 1.9 2.4 1.2 88.0 100.0 0.00 0.0000000 75.8
2021-07-22 04:45:00 64.5 81.0 58.5 64.5 64.5 3.3 3.7 2.6 93.5 88.3 0.00 0.0000000 75.8
2021-07-22 04:50:00 65.5 75.7 57.7 65.5 65.5 3.3 4.0 3.1 87.0 90.0 0.00 0.0000000 75.7
2021-07-22 04:55:00 65.4 76.7 57.8 65.4 65.4 2.4 3.5 2.7 48.0 69.5 0.00 0.0000000 75.7
2021-07-22 05:00:00 64.9 79.7 58.5 64.9 64.9 2.2 2.8 2.4 61.9 48.5 0.00 0.0000000 75.7
2021-07-22 05:05:00 64.3 80.1 58.0 64.3 64.3 2.8 3.0 2.3 54.4 47.9 0.00 0.0000000 75.7
2021-07-22 05:10:00 64.2 80.4 58.0 64.2 64.2 1.7 3.1 2.7 18.6 37.9 0.00 0.0000000 75.7
2021-07-22 05:15:00 63.9 80.9 58.0 63.9 63.9 0.0 1.7 0.7 48.4 37.8 0.00 0.0000000 75.6
2021-07-22 05:20:00 63.9 81.0 58.0 63.9 63.9 0.0 1.0 0.3 62.9 62.7 0.00 0.0000000 75.6
2021-07-22 05:25:00 64.0 81.1 58.1 64.0 64.0 0.0 1.3 0.4 345.0 44.7 0.00 0.0000000 75.6
2021-07-22 05:30:00 63.6 83.4 58.4 63.6 63.6 0.0 0.8 0.0 62.3 343.5 0.00 0.0000000 75.5
2021-07-22 05:35:00 63.1 84.0 58.2 63.1 63.1 0.0 0.0 0.0 112.7 0.0 0.00 0.0000000 75.5
2021-07-22 05:40:00 62.7 86.0 58.4 62.7 62.7 1.3 1.9 1.5 91.7 100.7 0.00 0.0000000 75.5
2021-07-22 05:45:00 62.6 86.3 58.4 62.6 62.6 2.6 2.8 2.2 107.4 95.6 0.00 0.0000000 75.5
2021-07-22 05:50:00 63.0 84.9 58.4 63.0 63.0 1.3 2.4 1.9 120.8 98.7 0.00 0.0000000 75.4
2021-07-22 05:55:00 62.9 85.0 58.3 62.9 62.9 3.5 3.5 2.5 128.6 119.8 0.00 0.0010000 75.4
2021-07-22 06:00:00 62.7 85.9 58.4 62.7 62.7 4.6 4.6 3.9 118.3 120.5 0.00 0.0020000 75.4
2021-07-22 06:05:00 62.5 87.0 58.6 62.5 62.5 3.3 4.4 3.7 129.7 120.1 0.00 0.0040000 75.4
2021-07-22 06:10:00 62.2 88.1 58.6 62.2 62.2 4.7 4.7 3.4 125.7 127.9 0.00 0.0070000 75.3
2021-07-22 06:15:00 62.5 88.4 59.1 62.5 62.5 2.8 4.2 3.3 147.8 134.6 0.00 0.0120000 75.3
2021-07-22 06:20:00 61.9 88.8 58.6 61.9 61.9 3.0 3.8 2.9 163.2 157.7 0.00 0.0170000 75.3
2021-07-22 06:25:00 61.9 89.8 58.9 61.9 61.9 3.0 3.5 2.9 158.1 158.3 0.00 0.0230000 75.3
2021-07-22 06:30:00 61.9 90.3 59.0 61.9 61.9 2.1 3.0 2.4 136.4 142.9 0.00 0.0310000 75.3
2021-07-22 06:35:00 62.3 90.5 59.5 62.3 62.3 0.0 2.2 0.9 135.5 137.4 0.00 0.0420000 75.2
2021-07-22 06:40:00 62.4 89.3 59.2 62.4 62.4 1.2 1.2 0.3 307.2 293.3 0.00 0.0550000 75.2
2021-07-22 06:45:00 63.0 88.0 59.4 63.0 63.0 1.7 2.2 1.8 322.7 305.4 0.00 0.0690000 75.2
2021-07-22 06:50:00 63.8 87.0 59.8 63.8 63.8 0.0 1.7 0.5 292.7 337.0 0.00 0.0840000 75.2
2021-07-22 06:55:00 64.1 85.2 59.5 64.1 64.1 0.8 0.8 0.1 278.9 269.2 0.00 0.0940000 75.2
2021-07-22 07:00:00 64.9 86.1 60.7 64.9 64.9 1.2 2.6 1.9 304.1 286.8 0.00 0.0770000 75.1
2021-07-22 07:05:00 65.1 86.4 60.9 65.1 65.1 0.0 1.2 0.3 257.7 292.5 0.00 0.1200000 75.1
2021-07-22 07:10:00 65.5 85.3 61.0 65.5 65.5 0.0 0.8 0.0 212.0 230.3 0.00 0.1300000 75.1
2021-07-22 07:15:00 65.8 84.9 61.2 65.8 65.8 4.9 5.1 1.9 222.6 227.1 0.00 0.1300000 75.1
2021-07-22 07:20:00 65.8 84.9 61.2 65.8 65.8 2.8 4.9 3.6 194.2 204.5 0.00 0.1440000 75.1
2021-07-22 07:25:00 66.0 85.5 61.5 66.0 66.0 3.7 3.7 2.7 195.1 184.9 0.00 0.1250000 75.1
2021-07-22 07:30:00 66.0 84.3 61.1 66.0 66.0 3.1 4.4 3.4 184.2 191.2 0.00 0.1190000 75.1
2021-07-22 07:35:00 66.5 84.1 61.5 66.5 66.5 3.3 3.7 2.6 180.2 181.4 0.00 0.1230000 75.0
2021-07-22 07:40:00 66.7 83.0 61.4 66.7 66.7 3.1 4.2 3.6 172.3 182.0 0.00 0.1250000 75.0
2021-07-22 07:45:00 67.0 82.4 61.5 67.0 67.0 2.8 4.2 3.0 208.5 181.9 0.00 0.1590000 75.1
2021-07-22 07:50:00 67.2 81.3 61.3 67.2 67.2 2.6 3.8 3.0 176.3 175.3 0.00 0.1240000 75.0
2021-07-22 07:55:00 68.0 79.7 61.4 68.0 68.0 3.0 4.7 3.5 113.9 149.1 0.00 0.2310000 75.0
2021-07-22 08:00:00 68.5 76.8 60.9 68.5 68.5 3.5 5.6 4.3 153.3 140.2 0.00 0.1380000 75.0
2021-07-22 08:05:00 69.0 74.8 60.7 69.0 69.0 3.8 6.5 4.5 157.0 153.0 0.00 0.3180000 75.0
2021-07-22 08:10:00 70.0 74.2 61.4 70.0 70.0 6.2 6.2 4.9 140.6 150.1 0.00 0.3700000 75.1
2021-07-22 08:15:00 70.5 73.8 61.7 70.5 70.5 6.0 8.0 5.8 158.1 147.4 0.00 0.2480000 75.1
2021-07-22 08:20:00 70.8 74.3 62.2 70.8 70.8 6.3 8.8 6.9 166.3 160.1 0.00 0.4160000 75.1
2021-07-22 08:25:00 71.7 74.5 63.2 71.7 71.7 7.4 10.3 7.5 160.9 155.0 0.00 0.4390000 75.1
2021-07-22 08:30:00 72.0 73.9 63.2 72.0 72.0 10.1 11.7 8.8 179.4 162.5 0.00 0.4560000 75.1
2021-07-22 08:35:00 71.7 74.3 63.1 71.7 71.7 8.8 13.1 9.9 146.3 167.5 0.00 0.4890000 75.1
2021-07-22 08:40:00 73.0 73.1 63.8 73.0 73.0 9.6 13.0 9.2 169.1 159.9 0.00 0.2640000 75.1
2021-07-22 08:45:00 72.3 75.6 64.1 72.3 72.3 9.7 13.7 11.2 173.5 163.9 0.00 0.3420000 75.1
2021-07-22 08:50:00 72.2 75.1 63.9 72.2 72.2 9.4 14.7 12.2 146.6 160.2 0.00 0.4730000 75.1
2021-07-22 08:55:00 72.5 75.4 64.3 72.5 72.5 9.7 12.6 9.7 154.2 161.4 0.00 0.2550000 75.1
2021-07-22 09:00:00 72.6 74.4 64.0 72.6 72.6 11.0 12.6 9.7 149.9 159.0 0.00 0.4870000 75.2
2021-07-22 09:05:00 72.8 73.7 63.9 72.8 72.8 8.7 13.0 9.9 184.1 168.6 0.00 0.2790000 75.2
2021-07-22 09:10:00 72.9 71.8 63.2 72.9 72.9 11.5 12.4 9.3 185.2 165.7 0.00 0.2460000 75.2
2021-07-22 09:15:00 73.4 71.4 63.6 73.4 73.4 11.0 11.0 8.8 139.8 154.3 0.00 0.4360000 75.2
2021-07-22 09:20:00 73.2 71.6 63.5 73.2 73.2 8.1 10.6 8.3 183.6 172.5 0.00 0.2480000 75.2
2021-07-22 09:25:00 73.9 69.8 63.4 73.9 73.9 12.1 12.1 9.5 159.6 165.1 0.00 0.5730000 75.2
2021-07-22 09:30:00 74.8 68.2 63.6 74.8 74.8 10.1 11.0 8.7 134.0 154.7 0.00 0.6110000 75.3
2021-07-22 09:35:00 75.0 67.7 63.6 75.0 75.0 10.1 10.8 9.0 125.8 148.3 0.00 0.2470000 75.3
2021-07-22 09:40:00 75.0 67.6 63.6 75.0 75.0 6.9 10.5 8.1 159.6 162.3 0.00 0.5990000 75.3
2021-07-22 09:45:00 75.6 66.5 63.6 75.6 75.6 9.4 10.5 7.8 185.4 168.9 0.00 0.4640000 75.3
2021-07-22 09:50:00 76.5 63.7 63.2 76.5 76.5 9.9 11.2 8.1 134.4 163.7 0.00 0.7340000 75.3
2021-07-22 09:55:00 76.8 65.8 64.5 76.8 76.8 6.9 10.8 9.0 156.8 151.9 0.00 0.7110000 75.4
2021-07-22 10:00:00 77.1 64.2 64.1 77.1 77.1 9.4 12.1 9.5 189.0 163.4 0.00 0.7440000 75.4
2021-07-22 10:05:00 77.6 63.1 64.1 77.6 77.6 9.4 11.7 9.5 204.1 165.6 0.00 0.7460000 75.4
2021-07-22 10:10:00 77.6 61.6 63.4 77.6 77.6 9.2 11.3 8.4 198.6 171.2 0.00 0.7410000 75.5
2021-07-22 10:15:00 77.6 63.9 64.4 77.6 77.6 7.2 11.2 8.9 140.0 163.0 0.00 0.7380000 75.5
2021-07-22 10:20:00 77.7 60.9 63.1 77.7 77.7 7.2 12.1 9.5 137.6 151.4 0.00 0.7230000 75.5
2021-07-22 10:25:00 78.5 61.4 64.1 78.5 78.5 11.0 12.6 8.9 130.3 149.8 0.00 0.7400000 75.5
2021-07-22 10:30:00 78.5 59.4 63.2 78.5 78.5 11.0 12.8 9.7 165.5 144.3 0.00 0.7240000 75.6
2021-07-22 10:35:00 78.6 61.4 64.2 78.6 78.6 7.4 12.1 9.6 156.5 160.4 0.00 0.7370000 75.6
2021-07-22 10:40:00 79.3 59.6 64.0 79.3 79.3 13.3 13.9 9.6 176.3 157.2 0.00 0.8260000 75.7
2021-07-22 10:45:00 78.9 58.1 62.9 78.9 78.9 10.8 13.0 8.6 170.0 159.2 0.00 0.8470000 75.7
2021-07-22 10:50:00 79.3 60.0 64.2 79.3 79.3 9.9 15.1 10.5 145.1 155.7 0.00 0.7850000 75.8
2021-07-22 10:55:00 79.3 58.3 63.4 79.3 79.3 10.1 13.7 9.9 156.3 150.3 0.00 0.6260000 75.8
2021-07-22 11:00:00 80.0 58.4 64.1 80.0 81.6 8.8 13.7 10.7 149.5 161.9 0.00 0.7760000 75.8
2021-07-22 11:05:00 80.1 57.6 63.8 80.1 81.6 10.8 11.9 9.4 173.7 145.5 0.00 0.8050000 75.9
2021-07-22 11:10:00 79.8 55.9 62.7 79.8 79.8 9.6 13.1 9.9 173.0 157.9 0.00 0.8030000 75.9
2021-07-22 11:15:00 80.4 56.1 63.4 80.4 81.9 8.3 12.4 9.3 142.0 159.1 0.00 0.8090000 76.0
2021-07-22 11:20:00 81.3 51.7 61.8 81.3 82.2 10.8 15.5 9.8 187.3 159.6 0.00 0.8220000 76.0
2021-07-22 11:25:00 81.0 49.5 60.3 81.0 81.7 10.6 12.8 10.6 135.8 147.9 0.00 0.8210000 76.0
2021-07-22 11:30:00 81.7 50.9 61.8 81.7 82.6 12.8 12.8 10.0 142.9 152.3 0.00 0.8230000 76.1
2021-07-22 11:35:00 82.4 54.0 64.1 82.4 83.9 7.8 14.9 10.5 181.6 156.8 0.00 0.8300000 76.1
2021-07-22 11:40:00 82.9 50.8 62.8 82.9 83.9 6.5 14.9 10.4 151.9 161.9 0.00 0.8410000 76.2
2021-07-22 11:45:00 83.2 49.0 62.0 83.2 83.9 13.0 13.0 9.9 177.1 149.2 0.00 0.8720000 76.2
2021-07-22 11:50:00 82.2 50.9 62.2 82.2 83.1 9.2 15.5 10.9 158.1 166.5 0.00 0.9330000 76.3
2021-07-22 11:55:00 82.4 50.5 62.2 82.4 83.3 9.9 13.3 10.0 165.1 154.3 0.00 0.5760000 76.4
2021-07-22 12:00:00 82.2 49.9 61.7 82.2 83.0 11.0 14.4 11.1 145.7 153.6 0.00 0.6620000 76.4
2021-07-22 12:05:00 83.1 47.7 61.2 83.1 83.6 11.7 15.6 11.1 155.4 151.2 0.00 1.0010000 76.5
2021-07-22 12:10:00 84.0 47.6 62.0 84.0 84.7 11.0 15.1 12.6 174.1 159.7 0.00 0.9730000 76.5
2021-07-22 12:15:00 84.5 46.2 61.6 84.5 84.9 12.4 18.7 12.8 148.3 154.0 0.00 0.9560000 76.6
2021-07-22 12:20:00 83.4 41.9 57.8 83.4 83.0 16.0 16.0 11.8 148.3 147.4 0.00 0.9300000 76.6
2021-07-22 12:25:00 85.0 46.3 62.1 85.0 85.6 10.8 15.8 12.3 147.2 155.7 0.00 0.9090000 76.7
2021-07-22 12:30:00 84.7 39.4 57.4 84.7 84.7 15.3 16.7 13.1 158.0 141.5 0.00 0.8980000 76.7
2021-07-22 12:35:00 84.3 41.1 58.1 84.3 83.8 11.2 16.9 12.8 138.4 157.9 0.00 0.7500000 76.7
2021-07-22 12:40:00 84.7 38.2 56.4 84.7 84.7 16.9 16.9 12.3 158.1 153.2 0.00 0.8530000 76.8
2021-07-22 12:45:00 84.6 41.1 58.4 84.6 84.1 10.6 17.4 13.2 162.0 162.3 0.00 0.9020000 76.9
2021-07-22 12:50:00 86.4 39.6 58.9 86.4 86.4 13.0 15.8 12.2 145.2 143.2 0.00 0.8860000 76.9
2021-07-22 12:55:00 85.2 37.1 56.1 85.2 85.2 13.9 16.5 12.5 159.6 158.2 0.00 0.9030000 76.9
2021-07-22 13:00:00 86.1 36.8 56.7 86.1 86.1 9.9 14.2 11.2 162.5 163.7 0.00 0.9330000 77.0
2021-07-22 13:05:00 85.5 34.6 54.4 85.5 85.5 11.9 16.7 11.3 172.6 176.4 0.00 0.8840000 77.0
2021-07-22 13:10:00 86.3 37.0 57.0 86.3 86.3 10.3 13.9 10.8 182.6 181.0 0.00 0.8870000 77.1
2021-07-22 13:15:00 87.4 37.1 58.0 87.4 87.4 11.9 15.6 10.7 142.7 158.6 0.00 0.8840000 77.1
2021-07-22 13:20:00 86.6 33.8 54.7 86.6 86.6 19.0 19.0 13.7 166.7 163.2 0.00 0.8860000 77.2
2021-07-22 13:25:00 86.0 34.5 54.8 86.0 86.0 14.6 16.7 13.1 176.1 159.6 0.00 0.8800000 77.2
2021-07-22 13:30:00 87.0 36.3 57.1 87.0 87.0 9.4 14.7 11.0 154.9 170.5 0.00 0.8940000 77.3
2021-07-22 13:35:00 87.7 36.2 57.6 87.7 87.7 13.0 17.1 12.2 163.3 170.6 0.00 0.8910000 77.3
2021-07-22 13:40:00 87.4 34.1 55.7 87.4 87.4 11.7 15.8 11.5 135.5 157.4 0.00 0.8790000 77.3
2021-07-22 13:45:00 87.8 38.1 59.1 87.8 87.8 8.5 16.5 12.2 192.7 147.4 0.00 0.8850000 77.4
2021-07-22 13:50:00 88.1 35.4 57.3 88.1 88.1 12.1 15.5 12.1 138.5 158.5 0.00 0.8960000 77.4
2021-07-22 13:55:00 87.8 33.0 55.1 87.8 87.8 9.0 13.9 11.5 164.3 148.1 0.00 0.8650000 77.4
2021-07-22 14:00:00 88.1 34.7 56.8 88.1 88.1 8.1 12.4 9.5 133.7 147.0 0.00 0.8640000 77.5
2021-07-22 14:05:00 88.0 32.8 55.1 88.0 88.0 14.9 18.1 11.5 160.2 147.0 0.00 0.8630000 77.5
2021-07-22 14:10:00 87.8 32.9 55.0 87.8 87.8 12.8 16.0 11.7 171.4 147.6 0.00 0.8280000 77.6
2021-07-22 14:15:00 88.1 36.2 57.9 88.1 88.1 9.6 15.5 11.5 178.5 151.9 0.00 0.8630000 77.6
2021-07-22 14:20:00 88.2 33.0 55.5 88.2 88.2 10.5 15.5 11.1 117.9 151.7 0.00 0.9050000 77.7
2021-07-22 14:25:00 87.7 32.6 54.7 87.7 87.7 12.1 15.1 11.7 154.0 144.1 0.00 0.8300000 77.7
2021-07-22 14:30:00 88.8 32.8 55.9 88.8 88.8 10.8 14.2 11.3 160.6 145.6 0.00 0.8230000 77.8
2021-07-22 14:35:00 88.6 31.6 54.7 88.6 88.6 14.2 16.5 10.4 182.7 146.9 0.00 0.8140000 77.8
2021-07-22 14:40:00 89.2 33.7 56.9 89.2 89.2 9.4 14.7 11.4 153.3 165.5 0.00 0.7980000 77.8
2021-07-22 14:45:00 89.0 33.9 56.9 89.0 89.0 9.6 14.0 11.1 165.6 150.5 0.00 0.7940000 77.9
2021-07-22 14:50:00 88.5 35.2 57.5 88.5 88.5 9.9 14.6 9.8 161.6 164.0 0.00 0.7840000 77.9
2021-07-22 14:55:00 88.6 34.8 57.3 88.6 88.6 10.8 14.0 11.5 177.0 172.2 0.00 0.7810000 78.0
2021-07-22 15:00:00 89.2 33.8 57.0 89.2 89.2 11.0 15.8 10.1 120.1 163.1 0.00 0.7710000 78.0
2021-07-22 15:05:00 89.7 34.0 57.6 89.7 89.7 8.1 12.4 8.5 168.7 136.4 0.00 0.7540000 78.0
2021-07-22 15:10:00 89.4 32.2 55.9 89.4 89.4 7.8 13.9 9.9 168.6 174.7 0.00 0.7460000 78.1
2021-07-22 15:15:00 89.1 32.7 56.0 89.1 89.1 12.2 12.2 8.9 176.0 169.9 0.00 0.7380000 78.1
2021-07-22 15:20:00 89.1 33.8 57.0 89.1 89.1 10.5 13.5 10.5 177.2 171.8 0.00 0.7280000 78.2
2021-07-22 15:25:00 89.4 32.7 56.3 89.4 89.4 7.6 12.2 10.1 138.6 148.7 0.00 0.7150000 78.2
2021-07-22 15:30:00 89.6 33.0 56.7 89.6 89.6 11.7 12.8 9.7 123.2 146.4 0.00 0.7080000 78.2
2021-07-22 15:35:00 89.6 33.8 57.4 89.6 89.6 8.1 13.0 9.8 158.1 153.9 0.00 0.6980000 78.3
2021-07-22 15:40:00 89.9 31.7 55.8 89.9 89.9 11.7 11.7 9.2 168.5 148.5 0.00 0.6840000 78.3
2021-07-22 15:45:00 90.0 34.0 57.9 90.0 90.0 8.0 15.3 11.0 127.7 154.0 0.00 0.6730000 78.3
2021-07-22 15:50:00 89.7 32.1 56.0 89.7 89.7 7.1 16.0 9.3 153.0 146.4 0.00 0.6650000 78.4
2021-07-22 15:55:00 90.3 33.1 57.4 90.3 90.3 8.1 11.2 7.7 142.8 153.9 0.00 0.6550000 78.4
2021-07-22 16:00:00 90.1 31.9 56.2 90.1 90.1 13.0 14.4 10.0 171.5 143.5 0.00 0.6430000 78.4
2021-07-22 16:05:00 90.1 29.6 54.2 90.1 90.1 10.3 10.8 7.8 139.1 162.6 0.00 0.6350000 78.5
2021-07-22 16:10:00 90.8 32.4 57.3 90.8 90.8 10.6 12.4 8.6 127.8 129.9 0.00 0.5090000 78.5
2021-07-22 16:15:00 90.4 32.6 57.1 90.4 90.4 10.5 13.9 10.2 149.8 142.0 0.00 0.6000000 78.5
2021-07-22 16:20:00 90.6 34.4 58.7 90.6 90.6 8.5 13.1 9.8 150.8 147.1 0.00 0.5900000 78.5
2021-07-22 16:25:00 89.8 33.6 57.3 89.8 89.8 8.3 11.7 8.5 178.1 156.1 0.00 0.5750000 78.6
2021-07-22 16:30:00 90.0 33.3 57.3 90.0 90.0 9.2 15.1 10.4 155.0 147.0 0.00 0.5560000 78.6
2021-07-22 16:35:00 89.9 34.9 58.6 89.9 89.9 10.6 14.7 10.9 183.9 161.2 0.00 0.5490000 78.6
2021-07-22 16:40:00 88.8 30.8 54.1 88.8 88.8 10.1 14.2 10.4 142.5 169.5 0.00 0.5370000 78.6
2021-07-22 16:45:00 90.0 32.0 56.2 90.0 90.0 13.3 13.3 8.9 155.5 162.3 0.00 0.5160000 78.7
2021-07-22 16:50:00 90.1 33.1 57.2 90.1 90.1 10.5 14.9 10.5 179.7 145.2 0.00 0.5030000 78.7
2021-07-22 16:55:00 89.1 34.2 57.3 89.1 89.1 11.0 12.8 10.4 161.0 177.5 0.00 0.4900000 78.7
2021-07-22 17:00:00 89.3 33.1 56.6 89.3 89.3 8.3 14.2 9.2 184.9 176.1 0.00 0.4780000 78.7
2021-07-22 17:05:00 89.7 31.8 55.8 89.7 89.7 10.8 13.9 10.1 159.6 155.4 0.00 0.3900000 78.7
2021-07-22 17:10:00 90.0 33.3 57.3 90.0 90.0 9.9 10.8 9.1 150.0 143.7 0.00 0.4390000 78.7
2021-07-22 17:15:00 89.4 35.3 58.4 89.4 89.4 8.7 12.6 9.8 176.9 169.2 0.00 0.4270000 78.8
2021-07-22 17:20:00 89.2 34.1 57.2 89.2 89.2 10.3 12.1 8.9 184.6 183.5 0.00 0.4120000 78.8
2021-07-22 17:25:00 89.5 31.9 55.7 89.5 89.5 9.0 12.4 9.9 170.4 158.5 0.00 0.3930000 78.8
2021-07-22 17:30:00 89.1 32.1 55.5 89.1 89.1 12.2 13.7 9.8 183.6 165.7 0.00 0.3750000 78.8
2021-07-22 17:35:00 89.4 32.7 56.3 89.4 89.4 7.1 13.3 9.5 161.0 152.5 0.00 0.3580000 78.8
2021-07-22 17:40:00 89.5 32.7 56.4 89.5 89.5 10.3 10.8 8.6 171.6 145.0 0.00 0.3440000 78.8
2021-07-22 17:45:00 88.9 32.5 55.6 88.9 88.9 10.5 13.5 10.9 148.9 155.7 0.00 0.3260000 78.8
2021-07-22 17:50:00 89.3 31.9 55.5 89.3 89.3 10.5 13.1 10.0 142.5 140.6 0.00 0.3030000 78.8
2021-07-22 17:55:00 89.2 32.7 56.1 89.2 89.2 7.2 11.5 8.9 138.5 145.2 0.00 0.2590000 78.8
2021-07-22 18:00:00 88.8 32.0 55.1 88.8 88.8 8.3 11.3 8.3 146.4 135.8 0.00 0.1440000 78.8
2021-07-22 18:05:00 88.5 33.2 55.9 88.5 88.5 8.3 11.9 8.8 133.5 141.1 0.00 0.2410000 78.8
2021-07-22 18:10:00 88.5 35.1 57.4 88.5 88.5 6.3 10.8 8.1 153.3 145.7 0.00 0.0580000 78.8
2021-07-22 18:15:00 88.2 31.4 54.1 88.2 88.2 11.0 11.0 7.6 137.6 150.0 0.00 0.0980000 78.8
2021-07-22 18:20:00 88.3 33.1 55.6 88.3 88.3 7.1 11.0 8.5 139.6 150.6 0.00 0.0950000 78.8
2021-07-22 18:25:00 88.3 32.8 55.3 88.3 88.3 9.2 9.4 7.2 147.2 143.2 0.00 0.1240000 78.8
2021-07-22 18:30:00 88.1 32.4 54.9 88.1 88.1 8.7 11.2 9.1 143.2 140.3 0.00 0.1610000 78.8
2021-07-22 18:35:00 87.3 35.5 56.7 87.3 87.3 5.5 8.7 6.9 157.3 145.1 0.00 0.1200000 78.8
2021-07-22 18:40:00 87.0 34.2 55.4 87.0 87.0 6.7 9.6 7.0 139.1 138.3 0.00 0.1820000 78.8
2021-07-22 18:45:00 87.0 34.6 55.8 87.0 87.0 6.7 10.3 8.0 144.2 141.4 0.00 0.1230000 78.8
2021-07-22 18:50:00 87.3 33.4 55.1 87.3 87.3 7.8 9.7 7.7 137.9 143.9 0.00 0.1510000 78.8
2021-07-22 18:55:00 86.7 34.3 55.2 86.7 86.7 6.2 10.5 7.4 141.3 144.4 0.00 0.0710000 78.8
2021-07-22 19:00:00 86.5 34.3 55.0 86.5 86.5 6.9 10.5 7.8 138.2 141.4 0.00 0.0620000 78.8
2021-07-22 19:05:00 85.7 36.8 56.3 85.7 85.7 4.9 8.3 6.5 133.1 143.8 0.00 0.0530000 78.8
2021-07-22 19:10:00 85.3 36.0 55.3 85.3 85.3 7.1 7.1 5.3 172.7 145.1 0.00 0.0500000 78.8
2021-07-22 19:15:00 85.4 36.2 55.5 85.4 85.4 5.3 8.0 5.7 144.0 144.8 0.00 0.0520000 78.8
2021-07-22 19:20:00 85.0 37.8 56.5 85.0 85.0 4.6 7.1 5.6 133.5 145.7 0.00 0.0450000 78.8
2021-07-22 19:25:00 84.2 38.4 56.2 84.2 84.2 4.0 5.1 4.0 167.1 141.1 0.00 0.0350000 78.8
2021-07-22 19:30:00 83.8 38.8 56.1 83.8 83.8 3.8 4.9 4.1 141.8 146.0 0.00 0.0270000 78.8
2021-07-22 19:35:00 83.5 40.6 57.0 83.5 82.9 2.8 4.4 3.2 144.1 141.4 0.00 0.0220000 78.8
2021-07-22 19:40:00 82.8 42.6 57.8 82.8 82.5 2.8 3.3 2.9 129.5 126.0 0.00 0.0160000 78.7
2021-07-22 19:45:00 82.3 42.1 57.0 82.3 82.0 3.7 4.4 3.1 143.7 130.2 0.00 0.0110000 78.7
2021-07-22 19:50:00 81.6 44.2 57.7 81.6 81.6 4.0 4.7 4.1 143.7 146.2 0.00 0.0060000 78.7
2021-07-22 19:55:00 80.7 46.2 58.1 80.7 81.1 4.2 4.6 3.9 155.6 148.7 0.00 0.0040000 78.7
2021-07-22 20:00:00 79.7 48.4 58.5 79.7 79.7 3.8 4.7 4.2 144.3 150.1 0.00 0.0030000 78.7
2021-07-22 20:05:00 79.4 47.4 57.7 79.4 79.4 3.3 4.2 3.7 154.1 151.1 0.00 0.0020000 78.7
2021-07-22 20:10:00 79.7 47.4 57.9 79.7 79.7 4.4 4.4 3.9 156.6 155.8 0.00 0.0010000 78.7
2021-07-22 20:15:00 79.4 48.2 58.2 79.4 79.4 4.0 4.2 4.0 155.3 152.9 0.00 0.0000000 78.7
2021-07-22 20:20:00 78.8 49.5 58.4 78.8 78.8 3.3 4.6 3.9 164.0 158.4 0.00 0.0000000 78.6
2021-07-22 20:25:00 78.5 48.5 57.5 78.5 78.5 3.3 4.2 3.6 177.7 168.1 0.00 0.0000000 78.6
2021-07-22 20:30:00 78.7 48.7 57.8 78.7 78.7 4.4 4.4 3.6 168.1 177.0 0.00 0.0000000 78.6
2021-07-22 20:35:00 78.9 49.2 58.2 78.9 78.9 3.7 4.6 3.8 155.0 160.3 0.00 0.0000000 78.6
2021-07-22 20:40:00 78.6 49.5 58.2 78.6 78.6 4.0 4.0 3.8 169.3 162.1 0.00 0.0000000 78.6
2021-07-22 20:45:00 78.5 49.6 58.1 78.5 78.5 3.5 4.2 3.7 173.3 172.5 0.00 0.0000000 78.5
2021-07-22 20:50:00 78.2 51.0 58.6 78.2 78.2 4.9 5.3 3.9 157.9 165.7 0.00 0.0000000 78.5
2021-07-22 20:55:00 77.1 53.5 58.9 77.1 77.1 4.4 5.3 4.6 141.4 148.3 0.00 0.0000000 78.5
2021-07-22 21:00:00 76.7 53.6 58.6 76.7 76.7 3.8 4.7 4.3 149.5 147.1 0.00 0.0000000 78.5
2021-07-22 21:05:00 76.8 53.3 58.6 76.8 76.8 3.3 4.4 4.0 152.4 152.7 0.00 0.0000000 78.5
2021-07-22 21:10:00 77.0 52.2 58.1 77.0 77.0 2.6 3.5 3.0 143.4 148.3 0.00 0.0000000 78.4
2021-07-22 21:15:00 77.0 51.7 57.9 77.0 77.0 3.8 3.8 3.2 140.9 140.9 0.00 0.0000000 78.5
2021-07-22 21:20:00 76.3 55.8 59.3 76.3 76.3 3.3 3.7 3.2 145.7 138.5 0.00 0.0000000 78.4
2021-07-22 21:25:00 75.6 56.6 59.1 75.6 75.6 4.6 5.1 4.4 138.8 144.4 0.00 0.0000000 78.4
2021-07-22 21:30:00 76.0 53.4 57.8 76.0 76.0 5.3 6.2 5.0 138.7 139.7 0.00 0.0000000 78.4
2021-07-22 21:35:00 76.2 52.8 57.7 76.2 76.2 4.7 6.0 5.1 143.4 140.9 0.00 0.0000000 78.4
2021-07-22 21:40:00 76.4 53.0 58.0 76.4 76.4 4.2 6.2 5.1 145.3 145.2 0.00 0.0000000 78.3
2021-07-22 21:45:00 76.2 52.8 57.8 76.2 76.2 3.8 4.7 4.0 143.4 139.8 0.00 0.0000000 78.3
2021-07-22 21:50:00 76.0 54.1 58.2 76.0 76.0 3.0 3.8 3.4 143.6 147.5 0.00 0.0000000 78.3
2021-07-22 21:55:00 75.6 55.0 58.3 75.6 75.6 3.1 3.7 2.9 153.4 149.1 0.00 0.0000000 78.3
2021-07-22 22:00:00 75.0 57.8 59.1 75.0 75.0 3.7 4.0 3.5 151.9 153.4 0.00 0.0000000 78.2
2021-07-22 22:05:00 74.0 60.6 59.5 74.0 74.0 4.4 4.7 3.9 153.2 153.2 0.00 0.0000000 78.2
2021-07-22 22:10:00 74.0 59.9 59.2 74.0 74.0 3.8 4.7 4.3 159.5 159.6 0.00 0.0000000 78.2
2021-07-22 22:15:00 73.9 60.8 59.5 73.9 73.9 3.7 4.2 3.6 172.5 165.7 0.00 0.0000000 78.2
2021-07-22 22:20:00 74.1 59.8 59.2 74.1 74.1 3.7 4.2 3.9 155.4 165.2 0.00 0.0000000 78.1
2021-07-22 22:25:00 74.0 59.6 59.0 74.0 74.0 4.2 4.2 3.7 167.4 155.8 0.00 0.0000000 78.1
2021-07-22 22:30:00 73.9 61.0 59.6 73.9 73.9 4.0 4.6 4.2 158.9 160.4 0.00 0.0000000 78.1
2021-07-22 22:35:00 73.2 61.5 59.2 73.2 73.2 4.2 4.4 4.1 158.7 159.7 0.00 0.0000000 78.0
2021-07-22 22:40:00 73.0 61.1 58.8 73.0 73.0 4.7 5.1 4.5 166.8 156.7 0.00 0.0000000 78.0
2021-07-22 22:45:00 73.0 60.9 58.7 73.0 73.0 4.7 5.1 4.6 142.8 152.9 0.00 0.0000000 78.0
2021-07-22 22:50:00 73.1 60.6 58.6 73.1 73.1 5.1 5.8 5.0 164.1 150.2 0.00 0.0000000 78.0
2021-07-22 22:55:00 73.1 59.3 58.1 73.1 73.1 5.5 6.0 5.3 161.1 158.3 0.00 0.0000000 77.9
2021-07-22 23:00:00 73.2 58.4 57.7 73.2 73.2 5.8 6.5 5.7 189.1 162.8 0.00 0.0000000 77.9
2021-07-22 23:05:00 73.4 58.8 58.1 73.4 73.4 6.0 6.3 5.7 139.8 162.3 0.00 0.0000000 77.9
2021-07-22 23:10:00 73.3 58.5 57.8 73.3 73.3 5.5 6.2 5.5 140.1 160.5 0.00 0.0000000 77.9
2021-07-22 23:15:00 73.1 57.7 57.3 73.1 73.1 4.7 6.2 5.4 164.7 163.2 0.00 0.0000000 77.8
2021-07-22 23:20:00 73.0 58.4 57.6 73.0 73.0 3.8 5.6 4.6 156.4 166.1 0.00 0.0000000 77.8
2021-07-22 23:25:00 73.1 60.0 58.4 73.1 73.1 2.6 4.4 3.5 158.8 168.5 0.00 0.0000000 77.8
2021-07-22 23:30:00 72.3 60.4 57.8 72.3 72.3 4.0 4.0 3.3 147.4 139.9 0.00 0.0000000 77.8
2021-07-22 23:35:00 71.6 63.0 58.3 71.6 71.6 3.3 4.6 3.6 160.0 152.6 0.00 0.0000000 77.7
2021-07-22 23:40:00 71.3 63.5 58.3 71.3 71.3 3.7 4.2 3.6 159.2 156.5 0.00 0.0000000 77.7
2021-07-22 23:45:00 71.4 65.0 59.0 71.4 71.4 3.5 4.4 3.9 151.6 160.3 0.00 0.0000000 77.6
2021-07-22 23:50:00 70.8 66.3 59.0 70.8 70.8 3.5 4.0 3.5 143.3 150.6 0.00 0.0000000 77.6
2021-07-22 23:55:00 70.9 64.7 58.4 70.9 70.9 3.3 3.3 2.9 105.4 121.5 0.00 0.0000000 77.6
2021-07-23 00:00:00 72.6 60.0 57.9 72.6 72.6 3.7 4.4 3.5 50.2 67.2 0.00 0.0000000 77.6

Data is courtesy of the NM Climate Center. DO NOT USE IN LEGAL PROCEEDINGS.